PORTS® Data Listing: 8771341 Galveston Bay Entrance, North Jetty,

CO-OPS RAW PORTS DATA

************************      PRELIMINARY DATA      ************************** 

     THIS RAW DATA HAS NOT BEEN SUBJECT TO THE NATIONAL OCEAN SERVICE'S        
     QUALITY CONTROL OR QUALITY ASSURANCE PROCEDURES AND DOES NOT MEET         
     THE CRITERIA AND STANDARDS OF OFFICIAL NATIONAL OCEAN SERVICE             
     DATA.  IT IS RELEASED FOR LIMITED PUBLIC USE AS PRELIMINARY DATA TO       
     BE USED ONLY WITH APPROPRIATE CAUTION.                                    

************************      PRELIMINARY DATA      ************************** 


       CD   -   Calendar date
       T    -   Time
       TZ   -   Timezone
       PW   -   Predicted water level (feet above MLLW)
       OW   -   Observed water level (feet above MLLW)
       WS   -   Wind speed (knots)
       WD   -   Wind direction (degrees true)
       WG   -   Wind gust (knots)
       AT   -   Air temperature (degrees farenheit)
       WT   -   Water temperature (degrees farenheit)
       AP   -   Air pressure (millibars)
       SA   -   Salinty (PSU - Practical Salinity Units)
       SG   -   Specific gravity
       RH   -   Relative humidity
       AG   -   Air gap (feet)
       VI   -   Visibility (nautical miles)

       ** NOTE **
       A variable that has its data fields filled with "9"s, indicates that
       data was not collected for that sample period.
       **********


STATION NAME: Galveston Bay Entrance (8771341)
****************************************************************************************************
    CD       T    TZ    PW     OW    WS   WD   WG    AT    WT    AP    SA    SG     RH    AG   VI
****************************************************************************************************
2019/12/09 22:18 CST    1.26   1.90   12  149   15  75.0  64.9 1010.8 -9.9 -9.999 -99.9 -99.99 -9.99
2019/12/09 22:24 CST    1.27   1.92   11  150   14  74.8  65.1 1010.9 -9.9 -9.999 -99.9 -99.99 -9.99
2019/12/09 22:30 CST    1.27   1.92   11  151   13  75.0  65.1 1011.0 -9.9 -9.999 -99.9 -99.99 -9.99
2019/12/09 22:36 CST    1.28   1.97   10  149   13  74.5  65.1 1011.0 -9.9 -9.999 -99.9 -99.99 -9.99
2019/12/09 22:42 CST    1.28   1.96   10  147   12  74.1  65.1 1011.1 -9.9 -9.999 -99.9 -99.99 -9.99
2019/12/09 22:48 CST    1.29   1.96    9  149   11  74.1  65.1 1011.1 -9.9 -9.999 -99.9 -99.99 -9.99
2019/12/09 22:54 CST    1.29   1.97    8  150   11  73.8  65.1 1011.1 -9.9 -9.999 -99.9 -99.99 -9.99
2019/12/09 23:00 CST    1.30   1.97    7  152   10  74.1  65.1 1011.2 -9.9 -9.999 -99.9 -99.99 -9.99
2019/12/09 23:06 CST    1.31   1.98    6  152    9  73.9  65.1 1011.3 -9.9 -9.999 -99.9 -99.99 -9.99
2019/12/09 23:12 CST    1.31   2.02    6  145    8  73.6  65.3 1011.3 -9.9 -9.999 -99.9 -99.99 -9.99
2019/12/09 23:18 CST    1.32   2.04    8  147    9  73.8  65.3 1011.4 -9.9 -9.999 -99.9 -99.99 -9.99
2019/12/09 23:24 CST    1.32   2.07    8  147   10  74.1  65.3 1011.3 -9.9 -9.999 -99.9 -99.99 -9.99
2019/12/09 23:30 CST    1.33   2.06    8  150   10  73.9  65.3 1011.3 -9.9 -9.999 -99.9 -99.99 -9.99
2019/12/09 23:36 CST    1.33   2.08    3  164    7  72.1  65.1 1011.2 -9.9 -9.999 -99.9 -99.99 -9.99
2019/12/09 23:42 CST    1.34   2.08    5  160    7  72.9  65.1 1011.3 -9.9 -9.999 -99.9 -99.99 -9.99
2019/12/09 23:48 CST    1.34   2.07    5  159    7  73.0  65.1 1011.2 -9.9 -9.999 -99.9 -99.99 -9.99
2019/12/09 23:54 CST    1.35   2.05    5  161    7  73.2  65.1 1011.3 -9.9 -9.999 -99.9 -99.99 -9.99
2019/12/10 00:00 CST    1.35   2.04    5  160    6  73.6  65.1 1011.2 -9.9 -9.999 -99.9 -99.99 -9.99
2019/12/10 00:06 CST    1.35   2.04    6  156    6  73.8  65.1 1011.3 -9.9 -9.999 -99.9 -99.99 -9.99
2019/12/10 00:12 CST    1.36   2.01    7  153    8  74.1  65.1 1011.3 -9.9 -9.999 -99.9 -99.99 -9.99
2019/12/10 00:18 CST    1.36   2.02    6  151    7  73.9  65.1 1011.3 -9.9 -9.999 -99.9 -99.99 -9.99
2019/12/10 00:24 CST    1.36   2.02    8  155    9  73.9  65.1 1011.3 -9.9 -9.999 -99.9 -99.99 -9.99
2019/12/10 00:30 CST    1.36   2.03    8  152    9  74.1  65.1 1011.3 -9.9 -9.999 -99.9 -99.99 -9.99
2019/12/10 00:36 CST    1.36   2.02   10  149   11  74.7  65.1 1011.3 -9.9 -9.999 -99.9 -99.99 -9.99
2019/12/10 00:42 CST    1.36   2.04   10  149   12  73.9  65.1 1011.2 -9.9 -9.999 -99.9 -99.99 -9.99
2019/12/10 00:48 CST    1.35   2.07   12  147   13  74.3  65.1 1011.3 -9.9 -9.999 -99.9 -99.99 -9.99
2019/12/10 00:54 CST    1.35   2.08   10  151   12  74.1  65.1 1011.2 -9.9 -9.999 -99.9 -99.99 -9.99
2019/12/10 01:00 CST    1.35   2.10   12  154   13  74.1  65.1 1011.2 -9.9 -9.999 -99.9 -99.99 -9.99
2019/12/10 01:06 CST    1.34   2.09   13  150   14  74.7  65.1 1011.2 -9.9 -9.999 -99.9 -99.99 -9.99
2019/12/10 01:12 CST    1.34   2.11   12  148   14  75.6  65.1 1011.2 -9.9 -9.999 -99.9 -99.99 -9.99
2019/12/10 01:18 CST    1.33   2.12   12  147   13  75.6  65.1 1011.1 -9.9 -9.999 -99.9 -99.99 -9.99
2019/12/10 01:24 CST    1.32   2.12   13  148   14  75.4  65.1 1011.2 -9.9 -9.999 -99.9 -99.99 -9.99
2019/12/10 01:30 CST    1.31   2.13   12  147   14  74.8  65.3 1011.2 -9.9 -9.999 -99.9 -99.99 -9.99
2019/12/10 01:36 CST    1.31   2.08   11  148   13  74.7  65.3 1011.2 -9.9 -9.999 -99.9 -99.99 -9.99
2019/12/10 01:42 CST    1.30   2.06   11  153   14  75.0  65.3 1011.2 -9.9 -9.999 -99.9 -99.99 -9.99
2019/12/10 01:48 CST    1.28   2.07   11  150   13  74.3  65.3 1011.2 -9.9 -9.999 -99.9 -99.99 -9.99
2019/12/10 01:54 CST    1.27   2.05   11  144   14  73.8  65.5 1011.1 -9.9 -9.999 -99.9 -99.99 -9.99
2019/12/10 02:00 CST    1.26   2.02   13  150   15  74.7  65.5 1011.0 -9.9 -9.999 -99.9 -99.99 -9.99
2019/12/10 02:06 CST    1.25   2.01   13  152   16  75.0  65.5 1011.1 -9.9 -9.999 -99.9 -99.99 -9.99
2019/12/10 02:12 CST    1.23   1.98   13  152   16  75.2  65.5 1011.1 -9.9 -9.999 -99.9 -99.99 -9.99
2019/12/10 02:18 CST    1.22   1.96   12  154   15  75.0  65.5 1011.1 -9.9 -9.999 -99.9 -99.99 -9.99
2019/12/10 02:24 CST    1.20   1.94   11  153   14  74.5  65.5 1011.1 -9.9 -9.999 -99.9 -99.99 -9.99
2019/12/10 02:30 CST    1.18   1.90   10  155   12  74.3  65.5 1011.1 -9.9 -9.999 -99.9 -99.99 -9.99
2019/12/10 02:36 CST    1.16   1.87   12  167   13  74.3  65.7 1011.1 -9.9 -9.999 -99.9 -99.99 -9.99
2019/12/10 02:42 CST    1.14   1.86   14  167   15  74.7  65.7 1011.1 -9.9 -9.999 -99.9 -99.99 -9.99
2019/12/10 02:48 CST    1.12   1.83   15  164   16  75.0  65.7 1011.1 -9.9 -9.999 -99.9 -99.99 -9.99
2019/12/10 02:54 CST    1.10   1.81   15  160   16  74.3  65.7 1011.1 -9.9 -9.999 -99.9 -99.99 -9.99
2019/12/10 03:00 CST    1.08   1.78   14  157   16  74.5  65.7 1011.0 -9.9 -9.999 -99.9 -99.99 -9.99
2019/12/10 03:06 CST    1.06   1.75   15  157   17  74.7  65.7 1010.9 -9.9 -9.999 -99.9 -99.99 -9.99
2019/12/10 03:12 CST    1.03   1.71   14  156   15  74.7  65.7 1011.1 -9.9 -9.999 -99.9 -99.99 -9.99
2019/12/10 03:18 CST    1.01   1.70   11  157   14  73.9  65.8 1011.1 -9.9 -9.999 -99.9 -99.99 -9.99
2019/12/10 03:24 CST    0.98   1.65   12  160   13  74.7  65.8 1011.2 -9.9 -9.999 -99.9 -99.99 -9.99
2019/12/10 03:30 CST    0.95   1.60   11  158   12  74.8  65.8 1011.2 -9.9 -9.999 -99.9 -99.99 -9.99
2019/12/10 03:36 CST    0.93   1.60   10  159   11  74.1  65.8 1011.2 -9.9 -9.999 -99.9 -99.99 -9.99
2019/12/10 03:42 CST    0.90   1.55   12  165   13  75.0  65.7 1011.2 -9.9 -9.999 -99.9 -99.99 -9.99
2019/12/10 03:48 CST    0.87   1.52   10  166   12  74.3  65.7 1011.2 -9.9 -9.999 -99.9 -99.99 -9.99
2019/12/10 03:54 CST    0.84   1.48    8  167   11  73.9  65.7 1011.2 -9.9 -9.999 -99.9 -99.99 -9.99
2019/12/10 04:00 CST    0.81   1.46    7  165    9  73.8  65.7 1011.2 -9.9 -9.999 -99.9 -99.99 -9.99
2019/12/10 04:06 CST    0.77   1.43    7  165    8  73.2  65.7 1011.1 -9.9 -9.999 -99.9 -99.99 -9.99
2019/12/10 04:12 CST    0.74   1.41    5  173    6  73.0  65.7 1011.2 -9.9 -9.999 -99.9 -99.99 -9.99
2019/12/10 04:18 CST    0.71   1.43    6  172    7  73.6  65.7 1011.4 -9.9 -9.999 -99.9 -99.99 -9.99
2019/12/10 04:24 CST    0.67   1.39    5  177    7  73.6  65.7 1011.4 -9.9 -9.999 -99.9 -99.99 -9.99
2019/12/10 04:30 CST    0.64   1.39    2  185    6  73.0  65.8 1011.5 -9.9 -9.999 -99.9 -99.99 -9.99
2019/12/10 04:36 CST    0.60   1.41   14  356   15  69.4  65.8 1011.4 -9.9 -9.999 -99.9 -99.99 -9.99
2019/12/10 04:42 CST    0.57   1.44   18  346   26  68.4  65.8 1011.6 -9.9 -9.999 -99.9 -99.99 -9.99
2019/12/10 04:48 CST    0.53   1.50   20  354   28  66.7  65.8 1011.8 -9.9 -9.999 -99.9 -99.99 -9.99
2019/12/10 04:54 CST    0.50   1.52   25    0   27  66.0  65.8 1011.7 -9.9 -9.999 -99.9 -99.99 -9.99
2019/12/10 05:00 CST    0.46   1.46   23    3   28  65.8  65.8 1011.8 -9.9 -9.999 -99.9 -99.99 -9.99
2019/12/10 05:06 CST    0.42   1.44   22    8   27  65.8  65.8 1011.8 -9.9 -9.999 -99.9 -99.99 -9.99
2019/12/10 05:12 CST    0.39   1.34   22    3   26  65.5  65.8 1012.2 -9.9 -9.999 -99.9 -99.99 -9.99
2019/12/10 05:18 CST    0.35   1.23   20   10   24  65.5  65.8 1012.3 -9.9 -9.999 -99.9 -99.99 -9.99
2019/12/10 05:24 CST    0.32   1.16   22    7   24  65.5  65.8 1012.3 -9.9 -9.999 -99.9 -99.99 -9.99
2019/12/10 05:30 CST    0.29   1.10   24    5   26  64.6  66.0 1012.5 -9.9 -9.999 -99.9 -99.99 -9.99
2019/12/10 05:36 CST    0.25   1.05   21    9   26  64.6  66.0 1012.7 -9.9 -9.999 -99.9 -99.99 -9.99
2019/12/10 05:42 CST    0.22   1.05   21   11   25  64.2  66.0 1012.8 -9.9 -9.999 -99.9 -99.99 -9.99
2019/12/10 05:48 CST    0.19   1.02   21   16   25  64.2  66.0 1013.0 -9.9 -9.999 -99.9 -99.99 -9.99
2019/12/10 05:54 CST    0.16   1.00   22   23   25  64.2  66.0 1013.0 -9.9 -9.999 -99.9 -99.99 -9.99
2019/12/10 06:00 CST    0.13   0.98   20   18   24  64.0  65.8 1013.2 -9.9 -9.999 -99.9 -99.99 -9.99
2019/12/10 06:06 CST    0.10   0.98   23   10   26  63.7  65.8 1013.2 -9.9 -9.999 -99.9 -99.99 -9.99
2019/12/10 06:12 CST    0.07   0.93   26   16   30  62.6  65.8 1013.4 -9.9 -9.999 -99.9 -99.99 -9.99
2019/12/10 06:18 CST    0.04   0.88   21   14   29  62.8  65.8 1013.8 -9.9 -9.999 -99.9 -99.99 -9.99
2019/12/10 06:24 CST    0.02   0.81   18   16   21  63.1  65.7 1013.8 -9.9 -9.999 -99.9 -99.99 -9.99
2019/12/10 06:30 CST   -0.01   0.75   21   18   24  63.0  65.7 1013.7 -9.9 -9.999 -99.9 -99.99 -9.99
2019/12/10 06:36 CST   -0.03   0.71   21   11   26  62.1  65.7 1014.0 -9.9 -9.999 -99.9 -99.99 -9.99
2019/12/10 06:42 CST   -0.05   0.65   24   11   26  61.9  65.7 1014.0 -9.9 -9.999 -99.9 -99.99 -9.99
2019/12/10 06:48 CST   -0.07   0.60   22   12   28  62.2  65.7 1014.2 -9.9 -9.999 -99.9 -99.99 -9.99
2019/12/10 06:54 CST   -0.09   0.56   25    8   29  61.3  65.5 1014.3 -9.9 -9.999 -99.9 -99.99 -9.99
2019/12/10 07:00 CST   -0.11   0.55   24    8   30  61.2  65.5 1014.6 -9.9 -9.999 -99.9 -99.99 -9.99
2019/12/10 07:06 CST   -0.12   0.53   24   17   27  61.0  65.5 1014.5 -9.9 -9.999 -99.9 -99.99 -9.99
2019/12/10 07:12 CST   -0.14   0.50   27   17   30  61.0  65.3 1014.5 -9.9 -9.999 -99.9 -99.99 -9.99
2019/12/10 07:18 CST   -0.15   0.48   26   17   32  60.4  65.3 1014.5 -9.9 -9.999 -99.9 -99.99 -9.99
2019/12/10 07:24 CST   -0.16   0.46   26   17   31  60.1  65.3 1014.6 -9.9 -9.999 -99.9 -99.99 -9.99
2019/12/10 07:30 CST   -0.17   0.48   26   15   33  58.3  65.3 1014.6 -9.9 -9.999 -99.9 -99.99 -9.99
2019/12/10 07:36 CST   -0.17   0.45   24   16   30  58.3  65.1 1014.9 -9.9 -9.999 -99.9 -99.99 -9.99
2019/12/10 07:42 CST   -0.18   0.40   27   21   32  58.1  65.1 1014.8 -9.9 -9.999 -99.9 -99.99 -9.99
2019/12/10 07:48 CST   -0.19   0.41   29   21   33  57.7  65.1 1014.8 -9.9 -9.999 -99.9 -99.99 -9.99
2019/12/10 07:54 CST   -0.19   0.35   27   24   33  58.1  65.1 1015.0 -9.9 -9.999 -99.9 -99.99 -9.99
2019/12/10 08:00 CST   -0.19   0.37   28   28   34  57.7  65.1 1014.8 -9.9 -9.999 -99.9 -99.99 -9.99
2019/12/10 08:06 CST   -0.19   0.38   29   33   37  57.9  64.9 1014.8 -9.9 -9.999 -99.9 -99.99 -9.99
2019/12/10 08:12 CST   -0.19   0.36   32   25   37  57.4  64.9 1014.8 -9.9 -9.999 -99.9 -99.99 -9.99
2019/12/10 08:18 CST   -0.19   0.36   30   23   34  57.4  64.9 1015.0 -9.9 -9.999 -99.9 -99.99 -9.99
2019/12/10 08:24 CST   -0.18   0.37   30   21   36  57.2  64.9 1015.3 -9.9 -9.999 -99.9 -99.99 -9.99
2019/12/10 08:30 CST   -0.18   0.39   29   23   33  57.6  64.9 1015.6 -9.9 -9.999 -99.9 -99.99 -9.99
2019/12/10 08:36 CST   -0.17   0.42   27   12   34  57.2  64.8 1016.2 -9.9 -9.999 -99.9 -99.99 -9.99
2019/12/10 08:42 CST   -0.16   0.44   25    8   30  59.9  64.8 1016.4 -9.9 -9.999 -99.9 -99.99 -9.99
2019/12/10 08:48 CST   -0.15   0.43   29   11   32  59.9  64.8 1016.3 -9.9 -9.999 -99.9 -99.99 -9.99
2019/12/10 08:54 CST   -0.14   0.40   29   16   34  58.5  64.8 1016.3 -9.9 -9.999 -99.9 -99.99 -9.99
2019/12/10 09:00 CST   -0.13   0.39   28   15   34  58.3  64.6 1016.6 -9.9 -9.999 -99.9 -99.99 -9.99
2019/12/10 09:06 CST   -0.12   0.35   26   15   32  58.3  64.6 1016.6 -9.9 -9.999 -99.9 -99.99 -9.99
2019/12/10 09:12 CST   -0.10   0.23   25    8   34  57.4  64.6 1017.1 -9.9 -9.999 -99.9 -99.99 -9.99
2019/12/10 09:18 CST   -0.09   0.30   27   17   33  57.0  64.6 1016.9 -9.9 -9.999 -99.9 -99.99 -9.99
2019/12/10 09:24 CST   -0.07   0.31   27   13   34  56.7  64.4 1017.3 -9.9 -9.999 -99.9 -99.99 -9.99
2019/12/10 09:30 CST   -0.05   0.36   21    7   28  56.7  64.4 1017.7 -9.9 -9.999 -99.9 -99.99 -9.99
2019/12/10 09:36 CST   -0.03   0.46   28    2   32  55.8  64.4 1017.6 -9.9 -9.999 -99.9 -99.99 -9.99
2019/12/10 09:42 CST   -0.01   0.45   22    3   33  55.9  64.4 1018.1 -9.9 -9.999 -99.9 -99.99 -9.99
2019/12/10 09:48 CST    0.01   0.47   23    4   31  55.9  64.4 1018.3 -9.9 -9.999 -99.9 -99.99 -9.99
2019/12/10 09:54 CST    0.04   0.47   27   10   32  56.1  64.4 1017.9 -9.9 -9.999 -99.9 -99.99 -9.99
2019/12/10 10:00 CST    0.06   0.46   26   12   32  56.3  64.4 1017.9 -9.9 -9.999 -99.9 -99.99 -9.99
2019/12/10 10:06 CST    0.09   0.48   29   14   34  55.9  64.4 1017.8 -9.9 -9.999 -99.9 -99.99 -9.99
2019/12/10 10:12 CST    0.11   0.45   31   14   37  55.9  64.2 1017.8 -9.9 -9.999 -99.9 -99.99 -9.99
2019/12/10 10:18 CST    0.14   0.45   30   19   36  55.6  64.2 1017.7 -9.9 -9.999 -99.9 -99.99 -9.99
2019/12/10 10:24 CST    0.17   0.46   30   19   34  56.1  64.2 1017.9 -9.9 -9.999 -99.9 -99.99 -9.99
2019/12/10 10:30 CST    0.20   0.51   27   21   32  56.1  64.2 1018.0 -9.9 -9.999 -99.9 -99.99 -9.99
2019/12/10 10:36 CST    0.23   0.56   27   22   34  56.5  64.0 1018.0 -9.9 -9.999 -99.9 -99.99 -9.99
2019/12/10 10:42 CST    0.26   0.64   27   26   34  56.1  64.0 1017.9 -9.9 -9.999 -99.9 -99.99 -9.99
2019/12/10 10:48 CST    0.30   0.71   27   19   32  55.8  64.0 1018.1 -9.9 -9.999 -99.9 -99.99 -9.99
2019/12/10 10:54 CST    0.33   0.74   27   21   33  55.6  63.9 1017.9 -9.9 -9.999 -99.9 -99.99 -9.99
2019/12/10 11:00 CST    0.37   0.83   29   22   35  55.9  63.7 1017.7 -9.9 -9.999 -99.9 -99.99 -9.99
2019/12/10 11:06 CST    0.40   0.82   27   27   33  55.9  63.7 1017.7 -9.9 -9.999 -99.9 -99.99 -9.99
2019/12/10 11:12 CST    0.44   0.90   30   31   32  55.4  63.3 1017.5 -9.9 -9.999 -99.9 -99.99 -9.99
2019/12/10 11:18 CST    0.48   0.91   29   26   34  55.6  63.1 1017.6 -9.9 -9.999 -99.9 -99.99 -9.99
2019/12/10 11:24 CST    0.51   0.90   28   29   33  55.2  62.8 1017.9 -9.9 -9.999 -99.9 -99.99 -9.99
2019/12/10 11:30 CST    0.55   0.98   25   26   31  55.8  62.6 1018.1 -9.9 -9.999 -99.9 -99.99 -9.99
2019/12/10 11:36 CST    0.59   1.13   26   21   32  55.0  62.8 1018.2 -9.9 -9.999 -99.9 -99.99 -9.99
2019/12/10 11:42 CST    0.63   1.18   29   22   33  54.9  62.8 1018.0 -9.9 -9.999 -99.9 -99.99 -9.99
2019/12/10 11:48 CST    0.66   1.25   29   25   34  54.9  63.0 1017.8 -9.9 -9.999 -99.9 -99.99 -9.99
2019/12/10 11:54 CST    0.70   1.31   28   25   35  54.5  63.1 1017.8 -9.9 -9.999 -99.9 -99.99 -9.99
2019/12/10 12:00 CST    0.74   1.36   29   28   37  54.3  63.3 1017.8 -9.9 -9.999 -99.9 -99.99 -9.99
2019/12/10 12:06 CST    0.78   1.33   32   29   36  54.3  63.3 1017.6 -9.9 -9.999 -99.9 -99.99 -9.99
2019/12/10 12:12 CST    0.82   1.35   30   30   35  54.5  63.3 1017.5 -9.9 -9.999 -99.9 -99.99 -9.99
2019/12/10 12:18 CST    0.85   1.36   30   29   35  54.3  63.3 1017.5 -9.9 -9.999 -99.9 -99.99 -9.99
2019/12/10 12:24 CST    0.89   1.37   28   20   33  54.5  63.3 1017.8 -9.9 -9.999 -99.9 -99.99 -9.99
2019/12/10 12:30 CST    0.93   1.42   26   26   31  55.2  63.3 1018.0 -9.9 -9.999 -99.9 -99.99 -9.99
2019/12/10 12:36 CST    0.96   1.50   30   27   34  54.7  63.5 1017.9 -9.9 -9.999 -99.9 -99.99 -9.99
2019/12/10 12:42 CST    1.00   1.52   29   23   33  55.4  63.5 1018.0 -9.9 -9.999 -99.9 -99.99 -9.99
2019/12/10 12:48 CST    1.03   1.64   27   21   33  56.1  63.3 1018.1 -9.9 -9.999 -99.9 -99.99 -9.99
2019/12/10 12:54 CST    1.07   1.68   24   24   32  56.3  63.3 1018.1 -9.9 -9.999 -99.9 -99.99 -9.99
2019/12/10 13:00 CST    1.10   1.73   26   24   30  56.3  63.3 1018.0 -9.9 -9.999 -99.9 -99.99 -9.99
2019/12/10 13:06 CST    1.13   1.77   27   20   31  56.1  63.5 1018.2 -9.9 -9.999 -99.9 -99.99 -9.99
2019/12/10 13:12 CST    1.16   1.76   27   21   32  55.9  63.3 1018.3 -9.9 -9.999 -99.9 -99.99 -9.99
2019/12/10 13:18 CST    1.20   1.85   26   22   31  55.4  63.3 1018.5 -9.9 -9.999 -99.9 -99.99 -9.99
2019/12/10 13:24 CST    1.23   1.88   30   24   34  55.0  63.5 1018.4 -9.9 -9.999 -99.9 -99.99 -9.99
2019/12/10 13:30 CST    1.26   1.84   26   23   33  55.0  63.5 1018.4 -9.9 -9.999 -99.9 -99.99 -9.99
2019/12/10 13:36 CST    1.28   1.90   25   24   27  55.2  63.5 1018.6 -9.9 -9.999 -99.9 -99.99 -9.99
2019/12/10 13:42 CST    1.31   1.92   24   22   28  55.4  63.5 1018.9 -9.9 -9.999 -99.9 -99.99 -9.99
2019/12/10 13:48 CST    1.34   1.92   23   17   27  55.8  63.5 1019.0 -9.9 -9.999 -99.9 -99.99 -9.99
2019/12/10 13:54 CST    1.37   2.00   26   23   29  55.2  63.5 1019.2 -9.9 -9.999 -99.9 -99.99 -9.99
2019/12/10 14:00 CST    1.39   2.00   23   25   28  56.1  63.5 1019.1 -9.9 -9.999 -99.9 -99.99 -9.99
2019/12/10 14:06 CST    1.42   2.00   26   26   32  55.8  63.5 1019.0 -9.9 -9.999 -99.9 -99.99 -9.99
2019/12/10 14:12 CST    1.44   2.00   29   25   34  55.8  63.3 1019.2 -9.9 -9.999 -99.9 -99.99 -9.99
2019/12/10 14:18 CST    1.46   1.99   28   29   33  55.0  63.3 1019.1 -9.9 -9.999 -99.9 -99.99 -9.99
2019/12/10 14:24 CST    1.48   2.01   27   28   32  54.9  63.1 1019.2 -9.9 -9.999 -99.9 -99.99 -9.99
2019/12/10 14:30 CST    1.50   2.00   26   25   31  55.6  63.1 1019.2 -9.9 -9.999 -99.9 -99.99 -9.99
2019/12/10 14:36 CST    1.52   1.96   29   30   34  54.9  63.1 1019.0 -9.9 -9.999 -99.9 -99.99 -9.99
2019/12/10 14:42 CST    1.54   1.93   30   36   33  54.7  63.3 1018.8 -9.9 -9.999 -99.9 -99.99 -9.99
2019/12/10 14:48 CST    1.56   1.94   27   37   33  55.2  63.5 1018.9 -9.9 -9.999 -99.9 -99.99 -9.99
2019/12/10 14:54 CST    1.58   1.93   28   36   33  54.7  63.7 1018.9 -9.9 -9.999 -99.9 -99.99 -9.99
2019/12/10 15:00 CST    1.59   1.92   28   37   31  54.3  63.7 1019.0 -9.9 -9.999 -99.9 -99.99 -9.99
2019/12/10 15:06 CST    1.61   1.91   29   39   33  52.9  63.7 1019.0 -9.9 -9.999 -99.9 -99.99 -9.99
2019/12/10 15:12 CST    1.62   1.87   25   34   32  53.1  63.7 1019.1 -9.9 -9.999 -99.9 -99.99 -9.99
2019/12/10 15:18 CST    1.63   1.89   29   34   32  52.7  63.7 1019.2 -9.9 -9.999 -99.9 -99.99 -9.99
2019/12/10 15:24 CST    1.64   1.83   28   30   32  52.7  63.7 1019.4 -9.9 -9.999 -99.9 -99.99 -9.99
2019/12/10 15:30 CST    1.65   1.90   25   31   32  53.1  63.7 1019.5 -9.9 -9.999 -99.9 -99.99 -9.99
2019/12/10 15:36 CST    1.66   1.89   27   24   32  53.1  63.7 1019.7 -9.9 -9.999 -99.9 -99.99 -9.99
2019/12/10 15:42 CST    1.67   1.87   27   33   31  52.9  63.7 1019.4 -9.9 -9.999 -99.9 -99.99 -9.99
2019/12/10 15:48 CST    1.68   1.91   28   33   35  52.9  63.7 1019.3 -9.9 -9.999 -99.9 -99.99 -9.99
2019/12/10 15:54 CST    1.68   1.86   30   31   34  52.7  63.7 1019.7 -9.9 -9.999 -99.9 -99.99 -9.99
2019/12/10 16:00 CST    1.68   1.83   30   39   32  53.1  63.7 1019.7 -9.9 -9.999 -99.9 -99.99 -9.99
2019/12/10 16:06 CST    1.69 -99.99 -999 -999 -999 -99.9 -99.9 -999.9 -9.9 -9.999 -99.9 -99.99 -9.99
2019/12/10 16:12 CST    1.69 -99.99 -999 -999 -999 -99.9 -99.9 -999.9 -9.9 -9.999 -99.9 -99.99 -9.99
2019/12/10 16:18 CST    1.69 -99.99 -999 -999 -999 -99.9 -99.9 -999.9 -9.9 -9.999 -99.9 -99.99 -9.99
2019/12/10 16:24 CST    1.69 -99.99 -999 -999 -999 -99.9 -99.9 -999.9 -9.9 -9.999 -99.9 -99.99 -9.99
2019/12/10 16:30 CST    1.69 -99.99 -999 -999 -999 -99.9 -99.9 -999.9 -9.9 -9.999 -99.9 -99.99 -9.99
2019/12/10 16:36 CST    1.68 -99.99 -999 -999 -999 -99.9 -99.9 -999.9 -9.9 -9.999 -99.9 -99.99 -9.99
2019/12/10 16:42 CST    1.68 -99.99 -999 -999 -999 -99.9 -99.9 -999.9 -9.9 -9.999 -99.9 -99.99 -9.99
2019/12/10 16:48 CST    1.67 -99.99 -999 -999 -999 -99.9 -99.9 -999.9 -9.9 -9.999 -99.9 -99.99 -9.99
2019/12/10 16:54 CST    1.67 -99.99 -999 -999 -999 -99.9 -99.9 -999.9 -9.9 -9.999 -99.9 -99.99 -9.99
2019/12/10 17:00 CST    1.66 -99.99 -999 -999 -999 -99.9 -99.9 -999.9 -9.9 -9.999 -99.9 -99.99 -9.99
2019/12/10 17:06 CST    1.65 -99.99 -999 -999 -999 -99.9 -99.9 -999.9 -9.9 -9.999 -99.9 -99.99 -9.99
2019/12/10 17:12 CST    1.64 -99.99 -999 -999 -999 -99.9 -99.9 -999.9 -9.9 -9.999 -99.9 -99.99 -9.99
2019/12/10 17:18 CST    1.64 -99.99 -999 -999 -999 -99.9 -99.9 -999.9 -9.9 -9.999 -99.9 -99.99 -9.99
2019/12/10 17:24 CST    1.63 -99.99 -999 -999 -999 -99.9 -99.9 -999.9 -9.9 -9.999 -99.9 -99.99 -9.99
2019/12/10 17:30 CST    1.62 -99.99 -999 -999 -999 -99.9 -99.9 -999.9 -9.9 -9.999 -99.9 -99.99 -9.99
2019/12/10 17:36 CST    1.60 -99.99 -999 -999 -999 -99.9 -99.9 -999.9 -9.9 -9.999 -99.9 -99.99 -9.99
2019/12/10 17:42 CST    1.59 -99.99 -999 -999 -999 -99.9 -99.9 -999.9 -9.9 -9.999 -99.9 -99.99 -9.99
2019/12/10 17:48 CST    1.58 -99.99 -999 -999 -999 -99.9 -99.9 -999.9 -9.9 -9.999 -99.9 -99.99 -9.99
2019/12/10 17:54 CST    1.57 -99.99 -999 -999 -999 -99.9 -99.9 -999.9 -9.9 -9.999 -99.9 -99.99 -9.99
2019/12/10 18:00 CST    1.56 -99.99 -999 -999 -999 -99.9 -99.9 -999.9 -9.9 -9.999 -99.9 -99.99 -9.99
2019/12/10 18:06 CST    1.55 -99.99 -999 -999 -999 -99.9 -99.9 -999.9 -9.9 -9.999 -99.9 -99.99 -9.99
2019/12/10 18:12 CST    1.54 -99.99 -999 -999 -999 -99.9 -99.9 -999.9 -9.9 -9.999 -99.9 -99.99 -9.99
2019/12/10 18:18 CST    1.52 -99.99 -999 -999 -999 -99.9 -99.9 -999.9 -9.9 -9.999 -99.9 -99.99 -9.99
2019/12/10 18:24 CST    1.51 -99.99 -999 -999 -999 -99.9 -99.9 -999.9 -9.9 -9.999 -99.9 -99.99 -9.99
2019/12/10 18:30 CST    1.50 -99.99 -999 -999 -999 -99.9 -99.9 -999.9 -9.9 -9.999 -99.9 -99.99 -9.99
2019/12/10 18:36 CST    1.49 -99.99 -999 -999 -999 -99.9 -99.9 -999.9 -9.9 -9.999 -99.9 -99.99 -9.99
2019/12/10 18:42 CST    1.48 -99.99 -999 -999 -999 -99.9 -99.9 -999.9 -9.9 -9.999 -99.9 -99.99 -9.99
2019/12/10 18:48 CST    1.47 -99.99 -999 -999 -999 -99.9 -99.9 -999.9 -9.9 -9.999 -99.9 -99.99 -9.99
2019/12/10 18:54 CST    1.46 -99.99 -999 -999 -999 -99.9 -99.9 -999.9 -9.9 -9.999 -99.9 -99.99 -9.99
2019/12/10 19:00 CST    1.45 -99.99 -999 -999 -999 -99.9 -99.9 -999.9 -9.9 -9.999 -99.9 -99.99 -9.99
2019/12/10 19:06 CST    1.44 -99.99 -999 -999 -999 -99.9 -99.9 -999.9 -9.9 -9.999 -99.9 -99.99 -9.99
2019/12/10 19:12 CST    1.43 -99.99 -999 -999 -999 -99.9 -99.9 -999.9 -9.9 -9.999 -99.9 -99.99 -9.99
2019/12/10 19:18 CST    1.43 -99.99 -999 -999 -999 -99.9 -99.9 -999.9 -9.9 -9.999 -99.9 -99.99 -9.99
2019/12/10 19:24 CST    1.42 -99.99 -999 -999 -999 -99.9 -99.9 -999.9 -9.9 -9.999 -99.9 -99.99 -9.99
2019/12/10 19:30 CST    1.41 -99.99 -999 -999 -999 -99.9 -99.9 -999.9 -9.9 -9.999 -99.9 -99.99 -9.99
2019/12/10 19:36 CST    1.40 -99.99 -999 -999 -999 -99.9 -99.9 -999.9 -9.9 -9.999 -99.9 -99.99 -9.99
2019/12/10 19:42 CST    1.40 -99.99 -999 -999 -999 -99.9 -99.9 -999.9 -9.9 -9.999 -99.9 -99.99 -9.99
2019/12/10 19:48 CST    1.39 -99.99 -999 -999 -999 -99.9 -99.9 -999.9 -9.9 -9.999 -99.9 -99.99 -9.99
2019/12/10 19:54 CST    1.38 -99.99 -999 -999 -999 -99.9 -99.9 -999.9 -9.9 -9.999 -99.9 -99.99 -9.99
2019/12/10 20:00 CST    1.38 -99.99 -999 -999 -999 -99.9 -99.9 -999.9 -9.9 -9.999 -99.9 -99.99 -9.99
2019/12/10 20:06 CST    1.37 -99.99 -999 -999 -999 -99.9 -99.9 -999.9 -9.9 -9.999 -99.9 -99.99 -9.99
2019/12/10 20:12 CST    1.37 -99.99 -999 -999 -999 -99.9 -99.9 -999.9 -9.9 -9.999 -99.9 -99.99 -9.99
2019/12/10 20:18 CST    1.36 -99.99 -999 -999 -999 -99.9 -99.9 -999.9 -9.9 -9.999 -99.9 -99.99 -9.99
2019/12/10 20:24 CST    1.36 -99.99 -999 -999 -999 -99.9 -99.9 -999.9 -9.9 -9.999 -99.9 -99.99 -9.99
2019/12/10 20:30 CST    1.35 -99.99 -999 -999 -999 -99.9 -99.9 -999.9 -9.9 -9.999 -99.9 -99.99 -9.99
2019/12/10 20:36 CST    1.35 -99.99 -999 -999 -999 -99.9 -99.9 -999.9 -9.9 -9.999 -99.9 -99.99 -9.99
2019/12/10 20:42 CST    1.34 -99.99 -999 -999 -999 -99.9 -99.9 -999.9 -9.9 -9.999 -99.9 -99.99 -9.99
2019/12/10 20:48 CST    1.34 -99.99 -999 -999 -999 -99.9 -99.9 -999.9 -9.9 -9.999 -99.9 -99.99 -9.99
2019/12/10 20:54 CST    1.33 -99.99 -999 -999 -999 -99.9 -99.9 -999.9 -9.9 -9.999 -99.9 -99.99 -9.99
2019/12/10 21:00 CST    1.33 -99.99 -999 -999 -999 -99.9 -99.9 -999.9 -9.9 -9.999 -99.9 -99.99 -9.99
2019/12/10 21:06 CST    1.33 -99.99 -999 -999 -999 -99.9 -99.9 -999.9 -9.9 -9.999 -99.9 -99.99 -9.99
2019/12/10 21:12 CST    1.32 -99.99 -999 -999 -999 -99.9 -99.9 -999.9 -9.9 -9.999 -99.9 -99.99 -9.99
2019/12/10 21:18 CST    1.32 -99.99 -999 -999 -999 -99.9 -99.9 -999.9 -9.9 -9.999 -99.9 -99.99 -9.99
2019/12/10 21:24 CST    1.32 -99.99 -999 -999 -999 -99.9 -99.9 -999.9 -9.9 -9.999 -99.9 -99.99 -9.99
2019/12/10 21:30 CST    1.31 -99.99 -999 -999 -999 -99.9 -99.9 -999.9 -9.9 -9.999 -99.9 -99.99 -9.99
2019/12/10 21:36 CST    1.31 -99.99 -999 -999 -999 -99.9 -99.9 -999.9 -9.9 -9.999 -99.9 -99.99 -9.99
2019/12/10 21:42 CST    1.31 -99.99 -999 -999 -999 -99.9 -99.9 -999.9 -9.9 -9.999 -99.9 -99.99 -9.99
2019/12/10 21:48 CST    1.31 -99.99 -999 -999 -999 -99.9 -99.9 -999.9 -9.9 -9.999 -99.9 -99.99 -9.99
2019/12/10 21:54 CST    1.31 -99.99 -999 -999 -999 -99.9 -99.9 -999.9 -9.9 -9.999 -99.9 -99.99 -9.99
2019/12/10 22:00 CST    1.30 -99.99 -999 -999 -999 -99.9 -99.9 -999.9 -9.9 -9.999 -99.9 -99.99 -9.99
2019/12/10 22:06 CST    1.30 -99.99 -999 -999 -999 -99.9 -99.9 -999.9 -9.9 -9.999 -99.9 -99.99 -9.99
2019/12/10 22:12 CST    1.30 -99.99 -999 -999 -999 -99.9 -99.9 -999.9 -9.9 -9.999 -99.9 -99.99 -9.99
2019/12/10 22:18 CST    1.30 -99.99 -999 -999 -999 -99.9 -99.9 -999.9 -9.9 -9.999 -99.9 -99.99 -9.99